Погода Бельскиена неделю

Гродненская область, Белоруссия

19 - 25 июля
  • 19июля
    Сегодня
    +13°
    +25°
    Ясно и безоблачно
    ВремяПогодаТемператураВлажностьДавлениеВетер, м/сВероятность осадков
    00:00Ясно и безоблачно+19°C75 %752 мм0.9 м/с2 %
    03:00Облачно с прояснениями+17°C81 %753 мм1.1 м/с2 %
    06:00Небольшая облачность+15°C89 %752 мм1.4 м/с2 %
    09:00Небольшая облачность+18°C73 %752 мм2.4 м/с2 %
    12:00Ясно и безоблачно+22°C55 %752 мм2.5 м/с2 %
    15:00Ясно и безоблачно+24°C46 %751 мм2.9 м/с2 %
    18:00Практически безоблачно+24°C45 %750 мм3.1 м/с2 %
    21:00Ясно и безоблачно+22°C56 %750 мм1.7 м/с2 %
  • 20июля
    Суббота
    +15°
    +25°
    Облачно с прояснениями
    ВремяПогодаТемператураВлажностьДавлениеВетер, м/сВероятность осадков
    00:00Ясно и безоблачно+17°C69 %750 мм1.2 м/с2 %
    03:00Ясно и безоблачно+15°C82 %750 мм0.9 м/с2 %
    06:00Ясно и безоблачно+14°C90 %749 мм0.9 м/с2 %
    09:00Ясно и безоблачно+18°C77 %749 мм1.5 м/с2 %
    12:00Небольшая облачность+21°C61 %748 мм1.9 м/с4 %
    15:00Облачно с прояснениями+24°C48 %747 мм2.2 м/с7 %
    18:00Облачно с прояснениями+24°C47 %747 мм2.3 м/с6 %
    21:00Ясно и безоблачно+22°C70 %746 мм0.5 м/с2 %
  • 21июля
    Воскресенье
    +16°
    +26°
    Практически безоблачно
    ВремяПогодаТемператураВлажностьДавлениеВетер, м/сВероятность осадков
    00:00Практически безоблачно+18°C76 %746 мм0.3 м/с2 %
    03:00Ясно и безоблачно+16°C88 %746 мм0.2 м/с2 %
    06:00Ясно и безоблачно+15°C88 %746 мм0.1 м/с2 %
    09:00Практически безоблачно+21°C66 %746 мм0.8 м/с2 %
    12:00Практически безоблачно+24°C47 %746 мм1.6 м/с20 %
    15:00Практически безоблачно+26°C40 %745 мм1.5 м/с43 %
    18:00Практически безоблачно+26°C41 %744 мм1.7 м/с15 %
    21:00Практически безоблачно+23°C68 %745 мм0.6 м/с11 %
  • 22июля
    Понедельник
    +16°
    +28°
    Ясно и безоблачно
    ВремяПогодаТемператураВлажностьДавлениеВетер, м/сВероятность осадков
    00:00Практически безоблачно+20°C77 %745 мм0.4 м/с2 %
    03:00Ясно и безоблачно+18°C85 %745 мм0.1 м/с2 %
    06:00Ясно и безоблачно+17°C90 %745 мм0.0 м/с2 %
    09:00Ясно и безоблачно+22°C68 %745 мм0.5 м/с2 %
    12:00Практически безоблачно+25°C47 %745 мм0.7 м/с7 %
    15:00Ясно и безоблачно+27°C43 %745 мм1.5 м/с24 %
    18:00Практически безоблачно+28°C42 %745 мм1.6 м/с19 %
    21:00Ясно и безоблачно+25°C64 %745 мм0.7 м/с16 %
  • 23июля
    Вторник
    +17°
    +27°
    Облачно с прояснениями
    ВремяПогодаТемператураВлажностьДавлениеВетер, м/сВероятность осадков
    00:00Ясно и безоблачно+20°C71 %745 мм0.6 м/с3 %
    03:00Ясно и безоблачно+18°C89 %745 мм0.3 м/с3 %
    06:00Ясно и безоблачно+17°C93 %745 мм0.3 м/с10 %
    09:00Ясно и безоблачно+22°C69 %746 мм0.8 м/с17 %
    12:00Практически безоблачно+26°C43 %745 мм1.3 м/с39 %
    15:00Облачно с прояснениями+26°C40 %745 мм1.5 м/с34 %
    18:00Облачно с прояснениями+26°C54 %745 мм2.4 м/с29 %
    21:00Облачно с прояснениями+24°C71 %745 мм0.9 м/с23 %
Мы используем cookies
Соглашаюсь